Time;durP1;ratioP1;P1;durP2;ratioP2;P2;SDS_P1;SDS_P2;PMS_P1;PMS_P2;Temp;Humidity;BMP_temperature;BMP_pressure;BME280_temperature;BME280_humidity;BME280_pressure;Samples;Min_cycle;Max_cycle;Signal;HPM_P1;HPM_P2
2022/01/19 00:00:13;;;;;;;8.07;5.10;;;;;;;-143.53;100.00;58366.03;2101316;28;20580;-59
2022/01/19 00:01:15;;;;;;;12.85;5.95;;;;;;;-143.53;100.00;58366.03;2101905;28;20191;-59
2022/01/19 00:02:17;;;;;;;8.00;4.97;;;;;;;-143.53;100.00;58366.03;2101109;28;20636;-59
2022/01/19 00:03:19;;;;;;;11.00;6.25;;;;;;;-143.53;100.00;58366.03;2101464;28;20190;-59
2022/01/19 00:04:21;;;;;;;9.68;5.25;;;;;;;-143.53;100.00;58366.03;2100647;28;20535;-59
2022/01/19 00:05:22;;;;;;;8.50;4.95;;;;;;;-143.53;100.00;58366.03;2100533;28;20394;-59
2022/01/19 00:06:24;;;;;;;8.93;5.10;;;;;;;-143.53;100.00;58366.03;2100778;28;20192;-59
2022/01/19 00:07:25;;;;;;;6.30;4.50;;;;;;;-143.53;100.00;58366.03;2100891;28;20195;-59
2022/01/19 00:08:28;;;;;;;12.45;5.88;;;;;;;-143.53;100.00;58366.03;2100972;28;20203;-59
2022/01/19 00:09:30;;;;;;;6.53;4.70;;;;;;;-143.53;100.00;58366.03;2100651;28;20237;-59
2022/01/19 00:10:31;;;;;;;9.73;4.75;;;;;;;-143.53;100.00;58366.03;2100633;28;20195;-59
2022/01/19 00:11:33;;;;;;;17.27;5.75;;;;;;;-143.53;100.00;58366.03;2091328;28;20207;-58
2022/01/19 00:12:35;;;;;;;13.57;6.30;;;;;;;-143.53;100.00;58366.03;2100631;28;20218;-59
2022/01/19 00:13:36;;;;;;;10.48;5.97;;;;;;;-143.53;100.00;58366.03;2108398;28;20294;-59
2022/01/19 00:14:39;;;;;;;10.85;5.78;;;;;;;-143.53;100.00;58366.03;2100865;28;20709;-59
2022/01/19 00:15:40;;;;;;;9.30;5.25;;;;;;;-143.53;100.00;58366.03;2100208;28;20630;-59
2022/01/19 00:16:46;;;;;;;9.90;4.97;;;;;;;-143.53;100.00;58366.03;2100697;28;20591;-60
2022/01/19 00:17:49;;;;;;;12.88;5.25;;;;;;;-143.53;100.00;58366.03;2101527;28;20200;-59
2022/01/19 00:18:51;;;;;;;11.20;5.90;;;;;;;-143.53;100.00;58366.03;2092763;28;20689;-59
2022/01/19 00:19:52;;;;;;;7.53;5.15;;;;;;;-143.53;100.00;58366.03;2092517;28;20228;-59
2022/01/19 00:20:55;;;;;;;7.43;5.13;;;;;;;-143.53;100.00;58366.03;2100525;28;20206;-59
2022/01/19 00:21:57;;;;;;;10.30;5.03;;;;;;;-143.53;100.00;58366.03;2101230;28;20195;-59
2022/01/19 00:22:59;;;;;;;9.65;5.55;;;;;;;-143.53;100.00;58366.03;2101350;28;20191;-59
2022/01/19 00:24:00;;;;;;;13.80;5.53;;;;;;;-143.53;100.00;58366.03;2101062;28;20209;-59
2022/01/19 00:25:08;;;;;;;7.38;4.70;;;;;;;-143.53;100.00;58366.03;2091886;28;20227;-59
2022/01/19 00:26:10;;;;;;;8.68;5.22;;;;;;;-143.53;100.00;58366.03;2091473;28;20525;-59
2022/01/19 00:27:11;;;;;;;9.23;5.10;;;;;;;-143.53;100.00;58366.03;2091897;28;20200;-59
2022/01/19 00:28:14;;;;;;;9.45;5.07;;;;;;;-143.53;100.00;58366.03;2092975;28;20192;-59
2022/01/19 00:29:15;;;;;;;9.70;4.28;;;;;;;-143.53;100.00;58366.03;2094575;28;20207;-59
2022/01/19 00:30:17;;;;;;;15.60;5.40;;;;;;;-143.53;100.00;58366.03;2101245;28;20191;-59
2022/01/19 00:31:18;;;;;;;7.53;4.95;;;;;;;-143.53;100.00;58366.03;2100548;28;20204;-59
2022/01/19 00:32:23;;;;;;;12.43;4.97;;;;;;;-143.53;100.00;58366.03;2101173;28;20192;-59
2022/01/19 00:33:24;;;;;;;14.27;4.88;;;;;;;-143.53;100.00;58366.03;2098842;28;20187;-59
2022/01/19 00:34:28;;;;;;;9.50;4.45;;;;;;;-143.53;100.00;58366.03;2099907;28;20222;-59
2022/01/19 00:35:30;;;;;;;6.93;4.68;;;;;;;-143.53;100.00;58366.03;2100149;28;20204;-59
2022/01/19 00:36:32;;;;;;;9.70;4.70;;;;;;;-143.53;100.00;58366.03;2101605;28;20203;-59
2022/01/19 00:37:33;;;;;;;6.07;4.20;;;;;;;-143.53;100.00;58366.03;2101073;28;20635;-59
2022/01/19 00:38:35;;;;;;;5.78;4.13;;;;;;;-143.53;100.00;58366.03;2100949;28;20234;-59
2022/01/19 00:39:36;;;;;;;9.27;5.03;;;;;;;-143.53;100.00;58366.03;2100711;28;20223;-59
2022/01/19 00:40:39;;;;;;;8.65;5.10;;;;;;;-143.53;100.00;58366.03;2101687;28;20195;-59
2022/01/19 00:41:45;;;;;;;11.40;5.00;;;;;;;-143.53;100.00;58366.03;2102208;28;20195;-61
2022/01/19 00:42:47;;;;;;;9.77;5.78;;;;;;;-143.53;100.00;58366.03;2101318;28;20203;-59
2022/01/19 00:43:48;;;;;;;9.85;5.15;;;;;;;-143.53;100.00;58366.03;2101017;28;20199;-59
2022/01/19 00:44:50;;;;;;;8.15;4.68;;;;;;;-143.53;100.00;58366.03;2100359;28;20222;-59
2022/01/19 00:45:52;;;;;;;9.38;4.53;;;;;;;-143.53;100.00;58366.03;2099617;28;20286;-59
2022/01/19 00:47:01;;;;;;;9.45;5.40;;;;;;;-143.53;100.00;58366.03;2101335;28;20196;-59
2022/01/19 00:48:02;;;;;;;11.77;4.72;;;;;;;-143.53;100.00;58366.03;2100850;28;20639;-59
2022/01/19 00:49:04;;;;;;;11.80;6.05;;;;;;;-143.53;100.00;58366.03;2100794;28;20199;-60
2022/01/19 00:50:08;;;;;;;8.65;4.57;;;;;;;-143.53;100.00;58366.03;2101312;28;20196;-59
2022/01/19 00:51:09;;;;;;;6.93;5.47;;;;;;;-143.53;100.00;58366.03;2101554;28;20195;-59
2022/01/19 00:52:11;;;;;;;8.45;4.80;;;;;;;-143.53;100.00;58366.03;2101022;28;20192;-59
2022/01/19 00:53:13;;;;;;;7.32;4.38;;;;;;;-143.53;100.00;58366.03;2101144;28;20195;-59
2022/01/19 00:54:14;;;;;;;8.63;4.63;;;;;;;-143.53;100.00;58366.03;2101060;28;20198;-59
2022/01/19 00:55:16;;;;;;;12.88;5.38;;;;;;;-143.53;100.00;58366.03;2101380;28;20191;-59
2022/01/19 00:56:17;;;;;;;10.88;4.80;;;;;;;-143.53;100.00;58366.03;2101176;28;20188;-60
2022/01/19 00:57:19;;;;;;;9.20;5.07;;;;;;;-143.53;100.00;58366.03;2100995;28;20195;-59
2022/01/19 00:58:20;;;;;;;9.95;5.95;;;;;;;-143.53;100.00;58366.03;2099876;28;20203;-59
2022/01/19 00:59:21;;;;;;;7.78;4.80;;;;;;;-143.53;100.00;58366.03;2100756;28;20194;-60
2022/01/19 01:00:26;;;;;;;5.35;4.20;;;;;;;-143.53;100.00;58366.03;2101306;28;20195;-59
2022/01/19 01:01:28;;;;;;;12.57;4.97;;;;;;;-143.53;100.00;58366.03;2100456;28;20212;-59
2022/01/19 01:02:31;;;;;;;13.57;5.03;;;;;;;-143.53;100.00;58366.03;2100614;28;20226;-59
2022/01/19 01:03:32;;;;;;;8.80;5.75;;;;;;;-143.53;100.00;58366.03;2099817;28;20413;-60
2022/01/19 01:04:34;;;;;;;9.18;5.78;;;;;;;-143.53;100.00;58366.03;2091505;28;20232;-59
2022/01/19 01:05:36;;;;;;;7.72;5.35;;;;;;;-143.53;100.00;58366.03;2092140;28;20267;-59
2022/01/19 01:06:38;;;;;;;9.07;4.57;;;;;;;-143.53;100.00;58366.03;2101114;28;20196;-59
2022/01/19 01:07:40;;;;;;;7.85;5.03;;;;;;;-143.53;100.00;58366.03;2101351;28;20195;-60
2022/01/19 01:08:41;;;;;;;14.32;5.22;;;;;;;-143.53;100.00;58366.03;2100665;28;20202;-59
2022/01/19 01:09:43;;;;;;;7.80;4.95;;;;;;;-143.53;100.00;58366.03;2100245;28;20228;-59
2022/01/19 01:10:45;;;;;;;12.77;5.43;;;;;;;-143.53;100.00;58366.03;2101484;28;20206;-60
2022/01/19 01:12:02;;;;;;;7.80;4.40;;;;;;;-143.53;100.00;58366.03;2102003;28;20697;-60
2022/01/19 01:13:20;;;;;;;7.28;4.70;;;;;;;-143.53;100.00;58366.03;2098980;28;20187;-60
2022/01/19 01:16:00;;;;;;;7.70;4.95;;;;;;;-143.53;100.00;58366.03;2101297;28;20202;-60
2022/01/19 01:17:14;;;;;;;11.52;4.72;;;;;;;-143.53;100.00;58366.03;2099639;28;20241;-60
2022/01/19 01:18:18;;;;;;;8.98;5.32;;;;;;;-143.53;100.00;58366.03;2101076;28;20214;-60
2022/01/19 01:19:20;;;;;;;11.30;4.70;;;;;;;-143.53;100.00;58366.03;2100688;28;20244;-60
2022/01/19 01:20:21;;;;;;;8.27;5.15;;;;;;;-143.53;100.00;58366.03;2101050;28;20196;-60
2022/01/19 01:21:23;;;;;;;10.15;5.88;;;;;;;-143.53;100.00;58366.03;2100940;28;20873;-60
2022/01/19 01:22:25;;;;;;;14.50;5.45;;;;;;;-143.53;100.00;58366.03;2099927;28;20194;-60
2022/01/19 01:23:29;;;;;;;11.98;5.90;;;;;;;-143.53;100.00;58366.03;2099673;28;20192;-60
2022/01/19 01:24:31;;;;;;;7.00;4.88;;;;;;;-143.53;100.00;58366.03;2105943;28;20219;-60
2022/01/19 01:25:32;;;;;;;15.10;6.38;;;;;;;-143.53;100.00;58366.03;2108220;28;20319;-59
2022/01/19 01:26:34;;;;;;;9.85;5.35;;;;;;;-143.53;100.00;58366.03;2101353;28;20195;-60
2022/01/19 01:27:35;;;;;;;8.60;5.05;;;;;;;-143.53;100.00;58366.03;2102068;28;20199;-60
2022/01/19 01:28:37;;;;;;;11.60;5.30;;;;;;;-143.53;100.00;58366.03;2102897;28;20663;-60
2022/01/19 01:29:40;;;;;;;9.02;5.53;;;;;;;-143.53;100.00;58366.03;2101776;28;20222;-60
2022/01/19 01:30:43;;;;;;;13.40;6.05;;;;;;;-143.53;100.00;58366.03;2102119;28;20203;-60
2022/01/19 01:31:44;;;;;;;10.07;4.95;;;;;;;-143.53;100.00;58366.03;2103146;28;20194;-60
2022/01/19 01:32:46;;;;;;;11.13;5.30;;;;;;;-143.53;100.00;58366.03;2110500;28;20194;-60
2022/01/19 01:33:48;;;;;;;12.20;5.63;;;;;;;-143.53;100.00;58366.03;2109060;28;20187;-60
2022/01/19 01:34:50;;;;;;;12.57;5.53;;;;;;;-143.53;100.00;58366.03;2089405;28;20213;-60
2022/01/19 01:35:52;;;;;;;11.52;5.18;;;;;;;-143.53;100.00;58366.03;2087895;28;20578;-60
2022/01/19 01:36:54;;;;;;;15.05;5.13;;;;;;;-143.53;100.00;58366.03;2089540;28;20827;-60
2022/01/19 01:37:56;;;;;;;9.07;4.60;;;;;;;-143.53;100.00;58366.03;2090068;28;20203;-60
2022/01/19 01:38:57;;;;;;;7.30;4.82;;;;;;;-143.53;100.00;58366.03;2090071;28;20208;-60
2022/01/19 01:40:01;;;;;;;5.25;4.35;;;;;;;-143.53;100.00;58366.03;2088839;28;20220;-60
2022/01/19 01:41:08;;;;;;;6.40;4.40;;;;;;;-143.53;100.00;58366.03;2089773;28;20192;-60
2022/01/19 01:42:12;;;;;;;15.23;5.07;;;;;;;-143.53;100.00;58366.03;2089907;28;20220;-60
2022/01/19 01:43:14;;;;;;;8.25;4.60;;;;;;;-143.53;100.00;58366.03;2088188;28;20545;-60
2022/01/19 01:44:15;;;;;;;7.72;4.50;;;;;;;-143.53;100.00;58366.03;2089568;28;20192;-60
2022/01/19 01:45:22;;;;;;;12.90;5.70;;;;;;;-143.53;100.00;58366.03;2090029;28;20218;-61
2022/01/19 01:46:40;;;;;;;9.52;4.65;;;;;;;-143.53;100.00;58366.03;2090022;28;20729;-60
2022/01/19 01:48:01;;;;;;;8.18;5.60;;;;;;;-143.53;100.00;58366.03;2089554;28;20230;-61
2022/01/19 01:49:03;;;;;;;8.18;5.68;;;;;;;-143.53;100.00;58366.03;2089781;28;20200;-60
2022/01/19 01:53:46;;;;;;;13.57;5.25;;;;;;;-143.53;100.00;58366.03;2085839;28;20193;-61
2022/01/19 01:54:48;;;;;;;9.30;5.20;;;;;;;-143.53;100.00;58366.03;2089517;28;20572;-61
2022/01/19 01:55:49;;;;;;;17.30;6.10;;;;;;;-143.53;100.00;58366.03;2089251;28;20200;-61
2022/01/19 01:56:53;;;;;;;9.00;5.95;;;;;;;-143.53;100.00;58366.03;2089139;28;20200;-61
2022/01/19 01:57:54;;;;;;;9.07;5.47;;;;;;;-143.53;100.00;58366.03;2089924;28;20412;-60
2022/01/19 01:58:56;;;;;;;8.82;5.90;;;;;;;-143.53;100.00;58366.03;2089788;28;20207;-60
2022/01/19 01:59:57;;;;;;;13.73;5.55;;;;;;;-143.53;100.00;58366.03;2089391;28;20230;-61
2022/01/19 02:00:59;;;;;;;10.40;5.82;;;;;;;-143.53;100.00;58366.03;2088548;28;20205;-61
2022/01/19 02:02:01;;;;;;;9.68;5.35;;;;;;;-143.53;100.00;58366.03;2089782;28;20304;-60
2022/01/19 02:03:05;;;;;;;12.05;5.50;;;;;;;-143.53;100.00;58366.03;2087223;28;20199;-60
2022/01/19 02:04:06;;;;;;;8.10;5.00;;;;;;;-143.53;100.00;58366.03;2089350;28;20220;-60
2022/01/19 02:05:10;;;;;;;10.60;6.15;;;;;;;-143.53;100.00;58366.03;2089764;28;20196;-61
2022/01/19 02:08:22;;;;;;;12.75;5.28;;;;;;;-143.53;100.00;58366.03;2088718;28;20200;-61
2022/01/19 02:09:29;;;;;;;12.05;5.40;;;;;;;-143.53;100.00;58366.03;2089318;28;20248;-61
2022/01/19 02:21:46;;;;;;;12.20;6.55;;;;;;;-143.53;100.00;58366.03;2088864;28;20200;-61
2022/01/19 02:22:47;;;;;;;11.57;6.85;;;;;;;-143.53;100.00;58366.03;2089631;28;20243;-61
2022/01/19 02:23:52;;;;;;;19.75;7.55;;;;;;;-143.53;100.00;58366.03;2089653;28;20196;-61
2022/01/19 02:24:55;;;;;;;9.55;5.63;;;;;;;-143.53;100.00;58366.03;2086238;28;20217;-61
2022/01/19 02:25:59;;;;;;;10.98;6.38;;;;;;;-143.53;100.00;58366.03;2089293;28;20199;-61
2022/01/19 02:27:09;;;;;;;13.38;7.25;;;;;;;-143.53;100.00;58366.03;2088656;28;20201;-61
2022/01/19 02:30:31;;;;;;;10.02;6.45;;;;;;;-143.53;100.00;58366.03;2086731;28;20231;-61
2022/01/19 02:40:15;;;;;;;13.32;7.07;;;;;;;-143.53;100.00;58366.03;2072131;28;20221;-61
2022/01/19 02:41:16;;;;;;;14.50;7.78;;;;;;;-143.53;100.00;58366.03;2073107;28;20201;-61
2022/01/19 02:42:22;;;;;;;15.77;6.70;;;;;;;-143.53;100.00;58366.03;2073079;28;20217;-61
2022/01/19 02:43:27;;;;;;;11.85;7.45;;;;;;;-143.53;100.00;58366.03;2072078;28;20743;-61
2022/01/19 02:49:40;;;;;;;13.63;6.43;;;;;;;-143.53;100.00;58366.03;2063266;28;20222;-61
2022/01/19 02:50:42;;;;;;;16.38;6.43;;;;;;;-143.53;100.00;58366.03;2069624;28;20533;-61
2022/01/19 02:51:49;;;;;;;10.25;6.75;;;;;;;-143.53;100.00;58366.03;2073047;28;20595;-61
2022/01/19 02:52:51;;;;;;;17.05;7.30;;;;;;;-143.53;100.00;58366.03;2071569;28;20224;-61
2022/01/19 02:53:52;;;;;;;16.27;7.22;;;;;;;-143.53;100.00;58366.03;2072315;28;20205;-61
2022/01/19 02:54:54;;;;;;;13.82;7.55;;;;;;;-143.53;100.00;58366.03;2072506;28;20225;-61
2022/01/19 02:55:55;;;;;;;11.65;6.78;;;;;;;-143.53;100.00;58366.03;2073124;28;20205;-61
2022/01/19 02:57:00;;;;;;;13.45;6.30;;;;;;;-143.53;100.00;58366.03;2073014;28;20258;-61
2022/01/19 02:58:02;;;;;;;15.63;6.78;;;;;;;-143.53;100.00;58366.03;2072334;28;20208;-61
2022/01/19 02:59:14;;;;;;;14.57;7.53;;;;;;;-143.53;100.00;58366.03;2072851;28;20205;-61
2022/01/19 03:09:24;;;;;;;14.30;6.50;;;;;;;-143.53;100.00;58366.03;2072433;28;20793;-61
2022/01/19 03:10:25;;;;;;;11.90;6.75;;;;;;;-143.53;100.00;58366.03;2072893;28;20190;-61
2022/01/19 03:11:27;;;;;;;10.95;7.82;;;;;;;-143.53;100.00;58366.03;2072956;28;20573;-61
2022/01/19 03:12:29;;;;;;;12.93;6.95;;;;;;;-143.53;100.00;58366.03;2072949;28;20186;-61
2022/01/19 03:13:31;;;;;;;13.18;7.53;;;;;;;-143.53;100.00;58366.03;2071856;28;20204;-60
2022/01/19 03:14:32;;;;;;;15.27;8.05;;;;;;;-143.53;100.00;58366.03;2072334;28;20224;-61
2022/01/19 03:15:34;;;;;;;11.25;7.50;;;;;;;-143.53;100.00;58366.03;2072966;28;20206;-62
2022/01/19 03:16:36;;;;;;;15.38;7.60;;;;;;;-143.53;100.00;58366.03;2072440;28;20209;-60
2022/01/19 03:17:38;;;;;;;15.68;7.50;;;;;;;-143.53;100.00;58366.03;2072576;28;20753;-61
2022/01/19 03:18:39;;;;;;;13.25;7.82;;;;;;;-143.53;100.00;58366.03;2072882;28;20587;-61
2022/01/19 03:19:42;;;;;;;17.00;7.97;;;;;;;-143.53;100.00;58366.03;2072306;28;20233;-60
2022/01/19 03:20:43;;;;;;;13.35;6.68;;;;;;;-143.53;100.00;58366.03;2072727;28;20202;-60
2022/01/19 03:21:45;;;;;;;10.45;6.47;;;;;;;-143.53;100.00;58366.03;2072810;28;20205;-60
2022/01/19 03:22:57;;;;;;;16.05;8.20;;;;;;;-143.53;100.00;58366.03;2072703;28;20213;-60
2022/01/19 03:23:59;;;;;;;17.52;7.75;;;;;;;-143.53;100.00;58366.03;2072738;28;20205;-61
2022/01/19 03:25:02;;;;;;;18.80;6.90;;;;;;;-143.53;100.00;58366.03;2072382;28;20232;-60
2022/01/19 03:26:06;;;;;;;16.80;8.40;;;;;;;-143.53;100.00;58366.03;2072678;28;20201;-60
2022/01/19 03:27:07;;;;;;;13.88;7.35;;;;;;;-143.53;100.00;58366.03;2072764;28;20201;-61
2022/01/19 03:28:09;;;;;;;15.05;7.00;;;;;;;-143.53;100.00;58366.03;2072664;28;20216;-60
2022/01/19 03:29:10;;;;;;;13.70;8.07;;;;;;;-143.53;100.00;58366.03;2072217;28;20189;-60
2022/01/19 03:30:13;;;;;;;17.58;8.13;;;;;;;-143.53;100.00;58366.03;2072738;28;20197;-60
2022/01/19 03:31:14;;;;;;;12.05;7.68;;;;;;;-143.53;100.00;58366.03;2072621;28;20205;-60
2022/01/19 03:32:16;;;;;;;19.15;7.50;;;;;;;-143.53;100.00;58366.03;2072641;28;20332;-60
2022/01/19 03:33:18;;;;;;;11.77;7.85;;;;;;;-143.53;100.00;58366.03;2072684;28;20198;-60
2022/01/19 03:34:20;;;;;;;17.98;7.80;;;;;;;-143.53;100.00;58366.03;2086759;28;20237;-60
2022/01/19 03:35:21;;;;;;;11.93;8.00;;;;;;;-143.53;100.00;58366.03;2093062;28;20217;-60
2022/01/19 03:36:23;;;;;;;13.75;7.68;;;;;;;-143.53;100.00;58366.03;2092983;28;20207;-60
2022/01/19 03:37:24;;;;;;;14.45;7.40;;;;;;;-143.53;100.00;58366.03;2091679;28;20196;-60
2022/01/19 03:38:26;;;;;;;15.07;7.68;;;;;;;-143.53;100.00;58366.03;2092453;28;20193;-60
2022/01/19 03:39:27;;;;;;;16.55;8.32;;;;;;;-143.53;100.00;58366.03;2092430;28;20273;-60
2022/01/19 03:40:29;;;;;;;15.70;8.80;;;;;;;-143.53;100.00;58366.03;2091701;28;20626;-60
2022/01/19 03:41:30;;;;;;;19.38;8.07;;;;;;;-143.53;100.00;58366.03;2091939;28;20198;-60
2022/01/19 03:42:33;;;;;;;13.63;8.18;;;;;;;-143.53;100.00;58366.03;2092584;28;20215;-61
2022/01/19 03:43:35;;;;;;;15.88;8.27;;;;;;;-143.53;100.00;58366.03;2092285;28;20198;-60
2022/01/19 03:44:36;;;;;;;13.95;8.48;;;;;;;-143.53;100.00;58366.03;2092480;28;20362;-60
2022/01/19 03:45:38;;;;;;;14.10;8.27;;;;;;;-143.53;100.00;58366.03;2090253;28;20205;-60
2022/01/19 03:46:54;;;;;;;18.17;8.75;;;;;;;-143.53;100.00;58366.03;2092754;28;21041;-60
2022/01/19 03:48:08;;;;;;;20.33;9.02;;;;;;;-143.53;100.00;58366.03;2083356;28;20583;-61
2022/01/19 03:49:13;;;;;;;12.05;7.63;;;;;;;-143.53;100.00;58366.03;2083827;28;20244;-60
2022/01/19 03:50:14;;;;;;;17.08;8.82;;;;;;;-143.53;100.00;58366.03;2092163;28;20201;-60
2022/01/19 03:51:16;;;;;;;13.93;8.00;;;;;;;-143.53;100.00;58366.03;2092456;28;20199;-60
2022/01/19 03:52:18;;;;;;;13.73;8.73;;;;;;;-143.53;100.00;58366.03;2091710;28;20206;-60
2022/01/19 03:53:19;;;;;;;12.88;8.82;;;;;;;-143.53;100.00;58366.03;2092530;28;20202;-60
2022/01/19 03:54:21;;;;;;;15.10;8.73;;;;;;;-143.53;100.00;58366.03;2092620;28;20205;-61
2022/01/19 03:55:22;;;;;;;17.50;8.55;;;;;;;-143.53;100.00;58366.03;2092771;28;20545;-60
2022/01/19 03:56:24;;;;;;;16.00;10.00;;;;;;;-143.53;100.00;58366.03;2091564;28;20193;-61
2022/01/19 03:57:25;;;;;;;18.45;9.20;;;;;;;-143.53;100.00;58366.03;2093249;28;20202;-60
2022/01/19 03:58:27;;;;;;;20.33;9.75;;;;;;;-143.53;100.00;58366.03;2093188;28;20210;-61
2022/01/19 03:59:28;;;;;;;19.83;10.90;;;;;;;-143.53;100.00;58366.03;2092535;28;20225;-61
2022/01/19 04:00:34;;;;;;;19.65;9.63;;;;;;;-143.53;100.00;58366.03;2082476;28;20213;-61
2022/01/19 04:01:36;;;;;;;16.95;9.80;;;;;;;-143.53;100.00;58366.03;2084809;28;20223;-61
2022/01/19 04:02:38;;;;;;;26.25;10.30;;;;;;;-143.53;100.00;58366.03;2093189;28;20209;-61
2022/01/19 04:04:02;;;;;;;18.13;9.68;;;;;;;-143.53;100.00;58366.03;2092852;28;20290;-61
2022/01/19 04:05:11;;;;;;;19.35;9.52;;;;;;;-143.53;100.00;58366.03;2092231;28;20232;-61
2022/01/19 04:06:24;;;;;;;17.58;10.40;;;;;;;-143.53;100.00;58366.03;2092885;28;20213;-61
2022/01/19 04:07:26;;;;;;;22.42;10.48;;;;;;;-143.53;100.00;58366.03;2091645;28;20255;-61
2022/01/19 04:08:27;;;;;;;17.27;9.35;;;;;;;-143.53;100.00;58366.03;2092235;28;20193;-61
2022/01/19 04:09:30;;;;;;;26.25;10.27;;;;;;;-143.53;100.00;58366.03;2092327;28;20225;-61
2022/01/19 04:10:32;;;;;;;21.63;10.80;;;;;;;-143.53;100.00;58366.03;2092948;28;20198;-61
2022/01/19 04:11:33;;;;;;;21.88;11.13;;;;;;;-143.53;100.00;58366.03;2092591;28;20662;-61
2022/01/19 04:12:48;;;;;;;28.63;11.27;;;;;;;-143.53;100.00;58366.03;2091783;28;20210;-61
2022/01/19 04:15:06;;;;;;;21.83;10.88;;;;;;;-143.53;100.00;58366.03;2090410;28;20236;-60
2022/01/19 04:16:08;;;;;;;25.40;10.88;;;;;;;-143.53;100.00;58366.03;2092634;28;20198;-61
2022/01/19 04:17:12;;;;;;;21.85;10.88;;;;;;;-143.53;100.00;58366.03;2092669;28;20202;-61
2022/01/19 04:18:15;;;;;;;24.48;9.88;;;;;;;-143.53;100.00;58366.03;2093271;28;20268;-60
2022/01/19 04:19:32;;;;;;;19.67;10.20;;;;;;;-143.53;100.00;58366.03;2092026;28;20731;-61
2022/01/19 04:20:41;;;;;;;23.30;9.40;;;;;;;-143.53;100.00;58366.03;2091437;28;20215;-61
2022/01/19 04:21:42;;;;;;;23.73;9.05;;;;;;;-143.53;100.00;58366.03;2092480;28;20201;-61
2022/01/19 04:22:44;;;;;;;16.55;9.20;;;;;;;-143.53;100.00;58366.03;2092088;28;20214;-60
2022/01/19 04:23:45;;;;;;;30.92;10.27;;;;;;;-143.53;100.00;58366.03;2092692;28;20200;-60
2022/01/19 04:24:48;;;;;;;21.50;10.13;;;;;;;-143.53;100.00;58366.03;2091934;28;20237;-60
2022/01/19 04:25:50;;;;;;;29.05;10.45;;;;;;;-143.53;100.00;58366.03;2092720;28;20201;-61
2022/01/19 04:27:24;;;;;;;19.75;9.30;;;;;;;-143.53;100.00;58366.03;2092036;28;20208;-61
2022/01/19 04:28:19;;;;;;;15.90;8.80;;;;;;;-143.53;100.00;58366.03;2091708;28;20530;-61
2022/01/19 04:29:21;;;;;;;23.67;10.35;;;;;;;-143.53;100.00;58366.03;2092733;28;20198;-60
2022/01/19 04:30:26;;;;;;;27.45;10.38;;;;;;;-143.53;100.00;58366.03;2092586;28;20194;-60
2022/01/19 04:31:28;;;;;;;20.33;10.52;;;;;;;-143.53;100.00;58366.03;2092347;28;20202;-60
2022/01/19 04:33:02;;;;;;;29.38;9.80;;;;;;;-143.53;100.00;58366.03;2091825;28;20198;-61
2022/01/19 04:33:51;;;;;;;19.15;9.10;;;;;;;-143.53;100.00;58366.03;2093099;28;20556;-60
2022/01/19 04:34:53;;;;;;;15.65;8.88;;;;;;;-143.53;100.00;58366.03;2089834;28;20288;-60
2022/01/19 04:36:07;;;;;;;15.48;9.10;;;;;;;-143.53;100.00;58366.03;2092361;28;20644;-61
2022/01/19 04:44:08;;;;;;;16.63;7.60;;;;;;;-143.53;100.00;58366.03;2092287;28;20194;-60
2022/01/19 05:05:42;;;;;;;27.10;8.90;;;;;;;-143.53;100.00;58366.03;2094190;28;20672;-60
2022/01/19 05:06:46;;;;;;;16.20;8.50;;;;;;;-143.53;100.00;58366.03;2093432;28;20198;-60
2022/01/19 05:08:57;;;;;;;22.50;9.52;;;;;;;-143.53;100.00;58366.03;2095022;28;20239;-60
2022/01/19 05:13:50;;;;;;;22.13;9.05;;;;;;;-143.53;100.00;58366.03;2093291;28;20208;-60
2022/01/19 05:14:52;;;;;;;15.93;9.65;;;;;;;-143.53;100.00;58366.03;2093419;28;20224;-60
2022/01/19 05:15:53;;;;;;;20.65;10.00;;;;;;;-143.53;100.00;58366.03;2093722;28;20200;-60
2022/01/19 05:16:55;;;;;;;19.23;9.52;;;;;;;-143.53;100.00;58366.03;2094350;28;20202;-60
2022/01/19 05:17:56;;;;;;;21.02;10.13;;;;;;;-143.53;100.00;58366.03;2093875;28;20657;-60
2022/01/19 05:18:58;;;;;;;18.73;11.02;;;;;;;-143.53;100.00;58366.03;2093976;28;20201;-60
2022/01/19 05:19:59;;;;;;;20.83;9.60;;;;;;;-143.53;100.00;58366.03;2091819;28;20226;-59
2022/01/19 05:21:01;;;;;;;16.98;8.48;;;;;;;-143.53;100.00;58366.03;2094499;28;20683;-60
2022/01/19 05:22:03;;;;;;;21.80;10.23;;;;;;;-143.53;100.00;58366.03;2094202;28;20626;-59
2022/01/19 05:23:05;;;;;;;23.73;11.35;;;;;;;-143.53;100.00;58366.03;2093589;28;20199;-59
2022/01/19 05:24:07;;;;;;;22.33;10.10;;;;;;;-143.53;100.00;58366.03;2085312;28;20237;-59
2022/01/19 05:25:08;;;;;;;19.02;8.80;;;;;;;-143.53;100.00;58366.03;2081460;28;20560;-60
2022/01/19 05:26:10;;;;;;;21.33;10.45;;;;;;;-143.53;100.00;58366.03;2089531;28;20201;-59
2022/01/19 05:27:12;;;;;;;26.90;9.75;;;;;;;-143.53;100.00;58366.03;2095168;28;20204;-59
2022/01/19 05:28:14;;;;;;;22.75;9.60;;;;;;;-143.53;100.00;58366.03;2093429;28;20197;-59
2022/01/19 05:29:16;;;;;;;26.88;10.02;;;;;;;-143.53;100.00;58366.03;2094019;28;20865;-60
2022/01/19 05:30:18;;;;;;;22.02;10.40;;;;;;;-143.53;100.00;58366.03;2094000;28;20754;-59
2022/01/19 05:31:19;;;;;;;20.65;9.07;;;;;;;-143.53;100.00;58366.03;2092716;28;20686;-59
2022/01/19 05:32:22;;;;;;;23.77;8.75;;;;;;;-143.53;100.00;58366.03;2094421;28;20831;-60
2022/01/19 05:33:24;;;;;;;26.83;11.77;;;;;;;-143.53;100.00;58366.03;2094396;28;20193;-60
2022/01/19 05:34:25;;;;;;;24.50;9.52;;;;;;;-143.53;100.00;58366.03;2093858;28;20224;-59
2022/01/19 05:35:27;;;;;;;18.30;10.13;;;;;;;-143.53;100.00;58366.03;2093902;28;20667;-59
2022/01/19 05:36:29;;;;;;;21.83;11.07;;;;;;;-143.53;100.00;58366.03;2094448;28;20215;-60
2022/01/19 05:37:36;;;;;;;19.90;10.50;;;;;;;-143.53;100.00;58366.03;2093062;28;20216;-59
2022/01/19 05:38:38;;;;;;;22.10;9.35;;;;;;;-143.53;100.00;58366.03;2093034;28;20709;-59
2022/01/19 05:39:40;;;;;;;23.90;10.15;;;;;;;-143.53;100.00;58366.03;2093680;28;20229;-60
2022/01/19 05:40:42;;;;;;;28.38;10.07;;;;;;;-143.53;100.00;58366.03;2093515;28;20201;-59
2022/01/19 05:41:43;;;;;;;18.65;9.80;;;;;;;-143.53;100.00;58366.03;2093990;28;20207;-59
2022/01/19 05:42:49;;;;;;;26.33;10.57;;;;;;;-143.53;100.00;58366.03;2094369;28;20624;-59
2022/01/19 05:43:51;;;;;;;25.45;10.00;;;;;;;-143.53;100.00;58366.03;2091580;28;20224;-59
2022/01/19 05:44:52;;;;;;;22.10;8.77;;;;;;;-143.53;100.00;58366.03;2092769;28;20703;-59
2022/01/19 05:45:53;;;;;;;25.25;10.75;;;;;;;-143.53;100.00;58366.03;2092673;28;20200;-59
2022/01/19 05:46:55;;;;;;;18.48;10.45;;;;;;;-143.53;100.00;58366.03;2093621;28;20752;-59
2022/01/19 05:47:57;;;;;;;23.10;10.23;;;;;;;-143.53;100.00;58366.03;2094723;28;20200;-59
2022/01/19 05:48:58;;;;;;;23.65;9.02;;;;;;;-143.53;100.00;58366.03;2094598;28;20201;-59
2022/01/19 05:50:00;;;;;;;22.30;9.50;;;;;;;-143.53;100.00;58366.03;2091786;28;20887;-59
2022/01/19 05:51:01;;;;;;;22.35;11.60;;;;;;;-143.53;100.00;58366.03;2094078;28;20204;-59
2022/01/19 05:52:04;;;;;;;15.18;9.27;;;;;;;-143.53;100.00;58366.03;2094274;28;20851;-60
2022/01/19 05:53:06;;;;;;;18.80;10.23;;;;;;;-143.53;100.00;58366.03;2094335;28;20197;-59
2022/01/19 05:54:07;;;;;;;21.45;9.80;;;;;;;-143.53;100.00;58366.03;2093588;28;20225;-60
2022/01/19 05:55:09;;;;;;;27.45;12.60;;;;;;;-143.53;100.00;58366.03;2094323;28;20197;-59
2022/01/19 05:56:10;;;;;;;24.98;11.65;;;;;;;-143.53;100.00;58366.03;2093538;28;20188;-60
2022/01/19 05:57:12;;;;;;;21.60;11.13;;;;;;;-143.53;100.00;58366.03;2093530;28;20197;-60
2022/01/19 05:58:14;;;;;;;18.77;9.65;;;;;;;-143.53;100.00;58366.03;2093715;28;20209;-59
2022/01/19 05:59:15;;;;;;;22.05;10.25;;;;;;;-143.53;100.00;58366.03;2093784;28;20199;-59
2022/01/19 06:00:17;;;;;;;24.73;10.48;;;;;;;-143.53;100.00;58366.03;2094074;28;20203;-59
2022/01/19 06:01:19;;;;;;;26.85;10.57;;;;;;;-143.53;100.00;58366.03;2093790;28;20217;-59